Main page
METAR-TAF:

METAR-TAF

Airports :

Istres-Le Tubé Air Base

Istres, France

latitude: 43-31N, longitude: 004-56E, elevation: 23 m

Current weather observation

The report was made 17 minutes ago, at 00:00 UTC
Wind 8 kt from the East
Temperature 9°C
Humidity 71%
Pressure 1022 hPa
Visibility 10 km or more
no clouds below 1500 m and no cumulonimbus

METAR: LFMI 250000Z AUTO 10008KT CAVOK 09/04 Q1022 NOSIG

Time: 01:17 (00:17 UTC)

Forecast

The report was made 4 hours and 17 minutes ago, at 20:00 UTC
Forecast valid from 24 at 21 UTC to 25 at 21 UTC
Wind 10 kt from the East/Southeast
Visibility 10 km or more
no clouds below 1500 m and no cumulonimbus

TAF: LFMI 242000Z 2421/2521 11010KT CAVOK TX16/2513Z TN08/2506Z

Weather observations and forecasts of more than 4000 airports (METAR and TAF reports).

The available stations are represented by yellow and red dots on the map.

Hover mouse over dot to see the name of the station.

Then click to see weather observations and forecasts.

To change the map : click on the green buttons with a black cross to zoom in, on the green button with a dash to zoom out, or on the green arrows for adjacent maps.


METAR-TAF: